createdAt,value
2022-09-27T00:01:45.504Z,989.9
2022-09-27T00:07:15.904Z,989.8
2022-09-27T00:11:58.195Z,989.8
2022-09-27T00:17:04.639Z,989.8
2022-09-27T00:22:11.109Z,990.0
2022-09-27T00:27:07.611Z,989.9
2022-09-27T00:32:28.000Z,989.9
2022-09-27T00:37:30.364Z,990.0
2022-09-27T00:42:26.792Z,990.0
2022-09-27T00:47:43.230Z,990.0
2022-09-27T00:52:49.716Z,990.0
2022-09-27T00:57:46.184Z,990.0
2022-09-27T01:03:02.623Z,990.0
2022-09-27T01:08:08.950Z,990.0
2022-09-27T01:13:15.382Z,990.1
2022-09-27T01:18:21.738Z,990.2
2022-09-27T01:23:28.109Z,990.2
2022-09-27T01:28:38.571Z,990.2
2022-09-27T01:33:41.031Z,990.2
2022-09-27T01:38:47.403Z,990.2
2022-09-27T01:43:53.817Z,990.2
2022-09-27T01:48:50.153Z,990.3
2022-09-27T01:54:05.541Z,990.3
2022-09-27T01:59:12.950Z,990.3
2022-09-27T02:04:20.429Z,990.4
2022-09-27T02:09:50.851Z,990.4
2022-09-27T02:14:33.211Z,990.4
2022-09-27T02:19:39.556Z,990.4
2022-09-27T02:24:35.955Z,990.4
2022-09-27T02:29:52.446Z,990.3
2022-09-27T02:34:58.852Z,990.3
2022-09-27T02:39:55.322Z,990.4
2022-09-27T02:45:11.740Z,990.4
2022-09-27T02:55:24.485Z,990.3
2022-09-27T03:05:37.259Z,990.4
2022-09-27T03:11:42.864Z,990.3
2022-09-27T03:15:50.124Z,990.3
2022-09-27T03:20:56.538Z,990.4
2022-09-27T03:26:30.937Z,990.4
2022-09-27T03:31:09.322Z,990.4
2022-09-27T03:36:15.816Z,990.5
2022-09-27T03:41:22.178Z,990.5
2022-09-27T03:46:32.622Z,990.4
2022-09-27T03:51:54.975Z,990.5
2022-09-27T03:57:01.339Z,990.6
2022-09-27T04:01:37.777Z,990.5
2022-09-27T04:06:44.026Z,990.5
2022-09-27T04:11:59.444Z,990.7
2022-09-27T04:17:29.826Z,990.7
2022-09-27T04:22:03.238Z,990.8
2022-09-27T04:27:43.710Z,990.8
2022-09-27T04:32:16.013Z,990.8
2022-09-27T04:37:31.412Z,990.8
2022-09-27T04:42:28.926Z,990.8
2022-09-27T04:47:45.215Z,990.9
2022-09-27T04:52:51.528Z,990.8
2022-09-27T04:57:57.912Z,991.0
2022-09-27T05:03:04.313Z,991.0
2022-09-27T05:08:10.657Z,991.0
2022-09-27T05:13:17.057Z,991.0
2022-09-27T05:18:23.464Z,991.0
2022-09-27T05:23:29.817Z,991.1
2022-09-27T05:28:36.196Z,991.0
2022-09-27T05:33:42.600Z,991.1
2022-09-27T05:38:48.959Z,991.1
2022-09-27T05:43:55.330Z,991.1
2022-09-27T05:49:01.734Z,991.1
2022-09-27T05:54:08.092Z,991.2
2022-09-27T05:59:34.517Z,991.2
2022-09-27T06:04:20.891Z,991.2
2022-09-27T06:09:17.372Z,991.2
2022-09-27T06:14:33.610Z,991.3
2022-09-27T06:20:04.064Z,991.4
2022-09-27T06:25:06.393Z,991.4
2022-09-27T06:29:52.730Z,991.4
2022-09-27T06:35:23.203Z,991.4
2022-09-27T06:40:05.619Z,991.5
2022-09-27T06:45:36.047Z,991.5
2022-09-27T06:50:18.372Z,991.5
2022-09-27T06:55:24.788Z,991.5
2022-09-27T07:00:31.161Z,991.8
2022-09-27T07:05:37.551Z,991.8
2022-09-27T07:10:34.046Z,991.8
2022-09-27T07:15:50.524Z,991.8
2022-09-27T07:20:46.880Z,992.0
2022-09-27T07:25:53.284Z,991.9
2022-09-27T07:31:09.723Z,992.1
2022-09-27T07:36:06.000Z,992.1
2022-09-27T07:41:12.407Z,992.0
2022-09-27T07:46:28.774Z,992.1
2022-09-27T07:51:49.228Z,992.2
2022-09-27T07:56:41.618Z,992.2
2022-09-27T08:01:37.993Z,992.2
2022-09-27T08:06:44.378Z,992.3
2022-09-27T08:12:00.819Z,992.3
2022-09-27T08:17:27.184Z,992.2
2022-09-27T08:22:03.580Z,992.3
2022-09-27T08:27:20.123Z,992.3
2022-09-27T08:32:22.106Z,992.3
2022-09-27T08:37:32.851Z,992.3
2022-09-27T08:42:39.273Z,992.3
2022-09-27T08:47:45.615Z,992.3
2022-09-27T08:52:52.097Z,992.4
2022-09-27T08:57:58.517Z,992.3
2022-09-27T09:02:53.867Z,992.3
2022-09-27T09:08:25.279Z,992.3
2022-09-27T09:13:17.660Z,992.3
2022-09-27T09:18:44.049Z,992.3
2022-09-27T09:23:54.441Z,992.3
2022-09-27T09:28:26.792Z,992.3
2022-09-27T09:33:43.165Z,992.3
2022-09-27T09:38:49.667Z,992.3
2022-09-27T09:43:56.066Z,992.3
2022-09-27T09:49:02.427Z,992.3
2022-09-27T09:53:58.803Z,992.5
2022-09-27T09:59:39.266Z,992.1
2022-09-27T10:04:11.636Z,992.1
2022-09-27T10:09:17.994Z,992.2
2022-09-27T10:14:34.454Z,992.2
2022-09-27T10:20:05.030Z,991.9
2022-09-27T10:24:51.335Z,992.0
2022-09-27T10:29:53.713Z,991.8
2022-09-27T10:34:50.070Z,991.9
2022-09-27T10:39:56.489Z,991.7
2022-09-27T10:45:12.853Z,991.8
2022-09-27T10:50:38.691Z,991.8
2022-09-27T10:55:25.645Z,991.9
2022-09-27T11:00:32.000Z,991.8
2022-09-27T11:05:38.480Z,992.0
2022-09-27T11:10:37.373Z,992.0
2022-09-27T11:15:51.360Z,992.0
2022-09-27T11:21:17.774Z,992.1
2022-09-27T11:25:54.136Z,992.2
2022-09-27T11:31:10.610Z,992.3
2022-09-27T11:36:16.873Z,992.1
2022-09-27T11:41:43.312Z,992.2
2022-09-27T11:46:38.580Z,992.2
2022-09-27T11:51:36.007Z,992.2
2022-09-27T11:56:32.368Z,992.1
2022-09-27T12:01:48.849Z,992.1
2022-09-27T12:06:55.217Z,992.1
2022-09-27T12:12:01.672Z,992.0
2022-09-27T12:17:08.187Z,991.9
2022-09-27T12:27:20.924Z,992.3
2022-09-27T12:32:27.337Z,992.0
2022-09-27T12:37:23.667Z,992.0
2022-09-27T12:42:44.097Z,991.8
2022-09-27T12:47:46.479Z,991.8
2022-09-27T12:52:42.815Z,991.8
2022-09-27T12:57:59.341Z,991.6
2022-09-27T13:03:25.760Z,991.8
2022-09-27T13:08:16.081Z,991.9
2022-09-27T13:13:18.536Z,991.9
2022-09-27T13:18:24.954Z,992.0
2022-09-27T13:23:55.358Z,992.2
2022-09-27T13:28:37.721Z,992.0
2022-09-27T13:33:58.141Z,992.6
2022-09-27T13:38:50.581Z,992.2
2022-09-27T13:44:25.024Z,992.0
2022-09-27T13:49:03.472Z,992.2
2022-09-27T13:53:59.813Z,992.2
2022-09-27T13:59:15.456Z,992.2
2022-09-27T14:04:26.740Z,992.2
2022-09-27T14:09:19.072Z,992.1
2022-09-27T14:14:39.479Z,992.1
2022-09-27T14:19:41.861Z,992.1
2022-09-27T14:24:38.184Z,992.1
2022-09-27T14:29:54.639Z,992.2
2022-09-27T14:35:01.040Z,992.1
2022-09-27T14:40:07.409Z,992.0
2022-09-27T14:45:13.787Z,992.1
2022-09-27T14:50:20.195Z,992.2
2022-09-27T14:55:26.656Z,992.1
2022-09-27T15:00:23.021Z,992.2
2022-09-27T15:05:43.467Z,992.3
2022-09-27T15:11:05.866Z,992.3
2022-09-27T15:15:42.264Z,992.3
2022-09-27T15:20:58.725Z,992.4
2022-09-27T15:26:05.175Z,992.4
2022-09-27T15:31:15.614Z,992.4
2022-09-27T15:36:41.994Z,992.4
2022-09-27T15:41:24.346Z,992.4
2022-09-27T15:46:34.743Z,992.4
2022-09-27T15:51:27.052Z,992.4
2022-09-27T15:56:43.522Z,992.5
2022-09-27T16:01:40.047Z,992.4
2022-09-27T16:07:00.379Z,992.5
2022-09-27T16:12:02.780Z,992.5
2022-09-27T16:16:59.118Z,992.4
2022-09-27T16:22:15.536Z,992.4
2022-09-27T16:27:41.970Z,992.5
2022-09-27T16:32:28.293Z,992.5
2022-09-27T16:37:38.686Z,992.5
2022-09-27T16:42:31.038Z,992.6
2022-09-27T16:47:47.451Z,992.5
2022-09-27T16:52:53.931Z,992.6
2022-09-27T16:58:00.314Z,992.6
2022-09-27T17:02:56.699Z,992.6
2022-09-27T17:08:13.071Z,992.5
2022-09-27T17:13:39.634Z,992.6
2022-09-27T17:18:26.092Z,992.6
2022-09-27T17:24:00.497Z,992.6
2022-09-27T17:28:38.818Z,992.6
2022-09-27T17:34:29.308Z,992.6
2022-09-27T17:38:51.576Z,992.6
2022-09-27T17:43:57.968Z,992.5
2022-09-27T17:49:04.320Z,992.6
2022-09-27T17:54:10.728Z,992.5
2022-09-27T17:59:07.058Z,992.5
2022-09-27T18:04:23.450Z,992.5
2022-09-27T18:09:19.838Z,992.5
2022-09-27T18:14:26.186Z,992.5
2022-09-27T18:19:56.619Z,992.4
2022-09-27T18:25:23.071Z,992.4
2022-09-27T18:30:30.447Z,992.4
2022-09-27T18:35:36.840Z,992.4
2022-09-27T18:41:07.604Z,992.4
2022-09-27T18:45:49.964Z,992.4
2022-09-27T18:50:56.354Z,992.3
2022-09-27T18:56:04.251Z,992.3
2022-09-27T19:03:58.951Z,992.2
2022-09-27T19:07:01.081Z,992.2
2022-09-27T19:11:27.391Z,992.3
2022-09-27T19:16:53.818Z,992.3
2022-09-27T19:21:36.167Z,992.3
2022-09-27T19:26:42.519Z,992.2
2022-09-27T19:32:13.093Z,992.3
2022-09-27T19:36:55.489Z,992.2
2022-09-27T19:42:01.818Z,992.3
2022-09-27T19:47:28.243Z,992.1
2022-09-27T19:52:14.746Z,992.2
2022-09-27T19:57:21.097Z,992.2
2022-09-27T20:02:51.564Z,992.2
2022-09-27T20:07:33.910Z,992.2
2022-09-27T20:12:40.266Z,992.2
2022-09-27T20:17:46.640Z,992.2
2022-09-27T20:22:53.035Z,992.1
2022-09-27T20:27:59.389Z,992.0
2022-09-27T20:33:25.829Z,992.0
2022-09-27T20:38:12.186Z,992.0
2022-09-27T20:43:42.566Z,992.0
2022-09-27T20:48:24.922Z,992.0
2022-09-27T20:53:51.357Z,991.9
2022-09-27T20:58:37.767Z,991.9
2022-09-27T21:03:44.245Z,991.9
2022-09-27T21:08:50.642Z,991.8
2022-09-27T21:13:57.044Z,991.8
2022-09-27T21:19:03.395Z,991.7
2022-09-27T21:24:29.876Z,991.7
2022-09-27T21:29:16.277Z,991.6
2022-09-27T21:34:46.730Z,991.6
2022-09-27T21:39:53.195Z,991.7
2022-09-27T21:44:35.675Z,991.7
2022-09-27T21:49:42.010Z,991.6
2022-09-27T21:54:48.393Z,991.6
2022-09-27T22:00:18.927Z,991.6
2022-09-27T22:05:01.249Z,991.6
2022-09-27T22:10:07.770Z,991.6
2022-09-27T22:15:14.256Z,991.7
2022-09-27T22:20:20.758Z,991.8
2022-09-27T22:25:51.172Z,991.7
2022-09-27T22:30:57.630Z,991.7
2022-09-27T22:36:04.017Z,991.6
2022-09-27T22:41:10.339Z,991.6
2022-09-27T22:45:52.675Z,991.5
2022-09-27T22:50:59.138Z,991.5
2022-09-27T22:56:05.758Z,991.4
2022-09-27T23:02:12.324Z,991.3
2022-09-27T23:06:18.587Z,991.4
2022-09-27T23:11:25.151Z,991.3
2022-09-27T23:16:31.563Z,991.3
2022-09-27T23:21:37.963Z,991.3
2022-09-27T23:26:44.377Z,991.2
2022-09-27T23:31:50.781Z,991.2
2022-09-27T23:37:01.125Z,991.2
2022-09-27T23:42:03.522Z,991.1
2022-09-27T23:47:09.870Z,991.1
2022-09-27T23:52:16.265Z,991.1
2022-09-27T23:57:46.802Z,991.0
